Time;durP1;ratioP1;P1;durP2;ratioP2;P2;SDS_P1;SDS_P2;PMS_P1;PMS_P2;Temp;Humidity;BMP_temperature;BMP_pressure;BME280_temperature;BME280_humidity;BME280_pressure;Samples;Min_cycle;Max_cycle;Signal;HPM_P1;HPM_P2
2024/01/29 00:00:16;;;;;;;7.47;5.88;;;2.00;1.00;;;;;;5048310;28;20237;-77
2024/01/29 00:02:44;;;;;;;9.75;6.20;;;2.00;1.00;;;;;;5047991;28;20340;-77
2024/01/29 00:05:13;;;;;;;7.95;6.53;;;2.00;1.00;;;;;;5049554;28;20343;-78
2024/01/29 00:07:40;;;;;;;9.02;5.80;;;2.00;1.00;;;;;;5041865;28;21037;-75
2024/01/29 00:10:08;;;;;;;8.70;5.60;;;1.90;1.00;;;;;;5046425;28;20248;-78
2024/01/29 00:12:35;;;;;;;9.23;6.00;;;1.90;1.00;;;;;;5044627;28;20245;-79
2024/01/29 00:15:03;;;;;;;10.13;6.88;;;1.90;1.00;;;;;;5039376;28;20244;-80
2024/01/29 00:17:30;;;;;;;8.07;5.88;;;1.80;1.00;;;;;;5043362;28;20245;-80
2024/01/29 00:19:57;;;;;;;8.43;6.32;;;1.80;1.00;;;;;;5039600;28;20327;-79
2024/01/29 00:22:26;;;;;;;8.20;5.50;;;1.80;1.00;;;;;;5040222;28;20304;-79
2024/01/29 00:24:53;;;;;;;10.50;6.07;;;1.80;1.00;;;;;;5044077;28;20253;-78
2024/01/29 00:27:20;;;;;;;11.07;6.32;;;1.80;1.00;;;;;;5039365;28;20313;-81
2024/01/29 00:29:47;;;;;;;6.85;5.68;;;1.70;1.00;;;;;;5046077;28;20260;-81
2024/01/29 00:32:14;;;;;;;8.25;5.60;;;1.70;1.00;;;;;;5050277;28;20804;-79
2024/01/29 00:34:42;;;;;;;10.02;6.10;;;1.70;1.00;;;;;;5044865;28;21165;-81
2024/01/29 00:37:09;;;;;;;8.93;5.07;;;1.80;1.00;;;;;;5043225;28;20729;-80
2024/01/29 00:39:38;;;;;;;8.05;6.00;;;1.80;1.00;;;;;;5051471;28;20261;-80
2024/01/29 00:42:05;;;;;;;12.23;6.28;;;1.80;1.00;;;;;;5052725;28;20276;-80
2024/01/29 00:44:32;;;;;;;9.23;5.57;;;1.80;1.00;;;;;;5051124;28;21192;-80
2024/01/29 00:46:59;;;;;;;6.88;5.47;;;1.80;1.00;;;;;;5036530;28;20238;-80
2024/01/29 00:49:31;;;;;;;9.93;5.88;;;1.80;1.00;;;;;;5033329;28;21115;-80
2024/01/29 00:51:58;;;;;;;7.07;5.50;;;1.70;1.00;;;;;;5040618;28;20238;-81
2024/01/29 00:54:25;;;;;;;9.48;6.13;;;1.70;1.00;;;;;;5048632;28;20287;-80
2024/01/29 00:56:53;;;;;;;10.25;6.63;;;1.70;1.00;;;;;;5053853;28;20260;-82
2024/01/29 00:59:20;;;;;;;10.55;9.55;;;1.70;1.00;;;;;;5035141;28;20242;-80
2024/01/29 01:01:47;;;;;;;11.13;6.38;;;1.60;1.00;;;;;;5052004;28;20307;-80
2024/01/29 01:04:15;;;;;;;7.35;5.50;;;1.60;1.00;;;;;;5043901;28;20265;-79
2024/01/29 01:06:42;;;;;;;8.57;5.55;;;1.60;1.00;;;;;;5051762;28;20236;-81
2024/01/29 01:09:10;;;;;;;10.73;6.60;;;1.60;1.00;;;;;;5035942;28;20796;-79
2024/01/29 01:11:37;;;;;;;10.45;6.40;;;1.60;1.00;;;;;;5043605;28;20276;-80
2024/01/29 01:14:05;;;;;;;8.10;5.40;;;1.50;1.00;;;;;;5054969;28;20244;-79
2024/01/29 01:16:32;;;;;;;7.30;5.68;;;1.60;1.00;;;;;;5046378;28;20243;-79
2024/01/29 01:19:00;;;;;;;7.50;6.18;;;1.70;1.00;;;;;;5045530;28;20619;-80
2024/01/29 01:21:27;;;;;;;10.10;6.68;;;1.70;1.00;;;;;;5038628;28;20281;-79
2024/01/29 01:23:54;;;;;;;12.15;5.88;;;1.60;1.00;;;;;;5043776;28;20233;-79
2024/01/29 01:26:21;;;;;;;7.20;6.30;;;1.60;1.00;;;;;;5054303;28;20324;-78
2024/01/29 01:28:48;;;;;;;9.25;7.05;;;1.60;1.00;;;;;;5052842;28;20619;-81
2024/01/29 01:31:17;;;;;;;9.18;6.20;;;1.60;1.00;;;;;;5032839;28;20242;-80
2024/01/29 01:33:44;;;;;;;7.70;5.95;;;1.50;1.00;;;;;;5040229;28;21063;-80
2024/01/29 01:36:11;;;;;;;10.10;6.18;;;1.50;1.00;;;;;;5046368;28;20265;-79
2024/01/29 01:38:38;;;;;;;9.50;5.75;;;1.40;1.00;;;;;;5051940;28;20307;-78
2024/01/29 01:41:05;;;;;;;10.25;6.13;;;1.40;1.00;;;;;;5035933;28;20993;-80
2024/01/29 01:43:32;;;;;;;7.35;6.03;;;1.40;1.00;;;;;;5044293;28;21197;-80
2024/01/29 01:46:15;;;;;;;11.52;7.15;;;1.30;1.00;;;;;;5031531;28;20986;-79
2024/01/29 01:48:44;;;;;;;11.43;7.10;;;1.40;1.00;;;;;;5051833;28;20346;-79
2024/01/29 01:51:13;;;;;;;9.15;6.25;;;1.30;1.00;;;;;;5050631;28;20249;-79
2024/01/29 01:53:41;;;;;;;7.65;5.97;;;1.30;1.00;;;;;;5044364;28;20229;-79
2024/01/29 01:56:08;;;;;;;9.85;6.13;;;1.30;1.00;;;;;;5053340;28;20764;-80
2024/01/29 01:58:35;;;;;;;9.45;6.05;;;1.30;1.00;;;;;;5045692;28;20232;-80
2024/01/29 02:01:03;;;;;;;10.60;5.88;;;1.30;1.00;;;;;;5043795;28;20233;-80
2024/01/29 02:03:31;;;;;;;6.25;5.63;;;1.20;1.00;;;;;;5048712;28;20237;-80
2024/01/29 02:06:00;;;;;;;9.05;6.75;;;1.20;1.00;;;;;;5043559;28;20245;-79
2024/01/29 02:08:29;;;;;;;8.20;6.15;;;1.20;1.00;;;;;;5041240;28;20305;-78
2024/01/29 02:10:59;;;;;;;10.40;6.80;;;1.30;1.00;;;;;;5050500;28;20340;-79
2024/01/29 02:13:29;;;;;;;10.63;6.80;;;1.20;1.00;;;;;;5033451;28;20234;-77
2024/01/29 02:15:57;;;;;;;9.07;5.93;;;1.20;1.00;;;;;;5039304;28;20234;-80
2024/01/29 02:18:24;;;;;;;11.13;6.78;;;1.20;1.00;;;;;;5036468;28;20324;-79
2024/01/29 02:20:51;;;;;;;12.50;7.32;;;1.20;1.00;;;;;;5037612;28;20242;-78
2024/01/29 02:23:20;;;;;;;10.18;6.70;;;1.20;1.00;;;;;;5046838;28;20268;-79
2024/01/29 02:25:47;;;;;;;10.52;6.55;;;1.20;1.00;;;;;;5029915;28;20245;-78
2024/01/29 02:28:14;;;;;;;10.88;6.85;;;1.20;1.00;;;;;;5047807;28;20253;-79
2024/01/29 02:30:41;;;;;;;10.02;6.20;;;1.20;1.00;;;;;;5029462;28;20230;-80
2024/01/29 02:33:08;;;;;;;9.45;6.07;;;1.20;1.00;;;;;;5032029;28;20721;-79
2024/01/29 02:35:35;;;;;;;8.93;6.90;;;1.10;1.00;;;;;;5050935;28;20279;-79
2024/01/29 02:38:02;;;;;;;10.63;5.93;;;1.10;1.00;;;;;;5041415;28;21055;-80
2024/01/29 02:40:31;;;;;;;8.93;7.03;;;1.10;1.00;;;;;;5051918;28;20341;-77
2024/01/29 02:42:59;;;;;;;11.75;8.40;;;1.10;1.00;;;;;;5050948;28;20729;-79
2024/01/29 02:45:26;;;;;;;12.85;7.43;;;1.10;1.00;;;;;;5050291;28;20870;-78
2024/01/29 02:47:53;;;;;;;10.13;6.40;;;1.10;1.00;;;;;;5050494;28;21162;-80
2024/01/29 02:50:22;;;;;;;8.05;6.05;;;1.10;1.00;;;;;;5051401;28;20236;-81
2024/01/29 02:52:49;;;;;;;8.80;6.57;;;1.10;1.00;;;;;;5049876;28;20329;-78
2024/01/29 02:55:17;;;;;;;9.10;6.82;;;1.10;1.00;;;;;;5048827;28;20253;-79
2024/01/29 02:57:48;;;;;;;8.82;6.13;;;1.00;1.00;;;;;;5044412;28;20234;-80
2024/01/29 03:00:16;;;;;;;9.10;6.45;;;1.00;1.00;;;;;;5048014;28;20249;-78
2024/01/29 03:02:43;;;;;;;12.60;6.65;;;1.00;1.00;;;;;;5043790;28;20241;-79
2024/01/29 03:05:10;;;;;;;9.68;7.00;;;1.00;1.00;;;;;;5043564;28;20288;-80
2024/01/29 03:07:37;;;;;;;7.45;6.40;;;1.00;1.00;;;;;;5029735;28;20261;-78
2024/01/29 03:10:04;;;;;;;12.57;7.07;;;1.00;1.00;;;;;;5048897;28;20820;-79
2024/01/29 03:12:32;;;;;;;9.07;6.10;;;1.00;1.00;;;;;;5016523;28;20341;-78
2024/01/29 03:15:00;;;;;;;9.63;6.95;;;1.00;1.00;;;;;;5023446;28;20262;-79
2024/01/29 03:17:27;;;;;;;10.93;7.07;;;0.90;1.00;;;;;;5022208;28;20327;-78
2024/01/29 03:19:54;;;;;;;11.38;7.25;;;0.90;1.00;;;;;;5026505;28;20307;-79
2024/01/29 03:22:24;;;;;;;9.05;6.35;;;0.90;1.00;;;;;;5020630;28;20297;-79
2024/01/29 03:24:51;;;;;;;10.60;7.30;;;0.90;1.00;;;;;;5019830;28;20244;-79
2024/01/29 03:27:18;;;;;;;14.63;8.00;;;1.00;1.00;;;;;;5021798;28;20234;-79
2024/01/29 03:29:45;;;;;;;9.20;7.32;;;1.00;1.00;;;;;;5017275;28;20277;-78
2024/01/29 03:32:13;;;;;;;10.88;6.75;;;0.90;1.00;;;;;;5024616;28;20241;-79
2024/01/29 03:34:42;;;;;;;12.25;7.03;;;0.90;1.00;;;;;;5028177;28;20246;-78
2024/01/29 03:37:09;;;;;;;10.00;6.88;;;0.90;1.00;;;;;;5029222;28;20234;-78
2024/01/29 03:39:36;;;;;;;7.28;6.57;;;0.90;1.00;;;;;;5028626;28;20293;-79
2024/01/29 03:42:03;;;;;;;11.30;7.70;;;0.80;1.00;;;;;;5028609;28;20280;-78
2024/01/29 03:44:30;;;;;;;11.55;7.53;;;0.80;1.00;;;;;;5015354;28;20238;-78
2024/01/29 03:46:59;;;;;;;10.60;6.80;;;0.80;1.00;;;;;;5030921;28;20275;-78
2024/01/29 03:49:27;;;;;;;9.48;6.93;;;0.80;1.00;;;;;;5021598;28;20902;-78
2024/01/29 03:51:54;;;;;;;11.38;7.28;;;0.90;1.00;;;;;;5023540;28;20316;-79
2024/01/29 03:54:21;;;;;;;8.77;7.30;;;0.80;1.00;;;;;;5027498;28;20248;-78
2024/01/29 03:56:48;;;;;;;9.05;7.47;;;0.90;1.00;;;;;;5031451;28;21106;-78
2024/01/29 03:59:15;;;;;;;10.15;7.10;;;0.80;1.00;;;;;;5029983;28;20273;-79
2024/01/29 04:01:42;;;;;;;8.93;7.05;;;0.80;1.00;;;;;;5028711;28;20588;-78
2024/01/29 04:04:10;;;;;;;10.30;7.35;;;0.70;1.00;;;;;;5028460;28;20918;-78
2024/01/29 04:06:40;;;;;;;9.80;6.20;;;0.80;1.00;;;;;;5028013;28;20241;-77
2024/01/29 04:09:10;;;;;;;11.25;7.43;;;0.80;1.00;;;;;;5029364;28;20312;-78
2024/01/29 04:11:38;;;;;;;14.00;8.05;;;0.90;1.00;;;;;;5021383;28;20277;-77
2024/01/29 04:14:05;;;;;;;14.82;7.95;;;0.80;1.00;;;;;;5035775;28;21029;-78
2024/01/29 04:16:32;;;;;;;9.10;6.35;;;0.80;1.00;;;;;;5033174;28;20778;-79
2024/01/29 04:19:00;;;;;;;10.57;6.88;;;0.80;1.00;;;;;;5026134;28;20321;-79
2024/01/29 04:21:28;;;;;;;10.07;8.85;;;0.80;1.00;;;;;;5030493;28;20341;-77
2024/01/29 04:23:56;;;;;;;13.35;7.72;;;0.70;1.00;;;;;;5030961;28;20623;-78
2024/01/29 04:26:25;;;;;;;11.05;6.90;;;0.70;1.00;;;;;;5026102;28;20300;-80
2024/01/29 04:28:51;;;;;;;12.30;7.50;;;0.70;1.00;;;;;;5032639;28;20249;-78
2024/01/29 04:31:18;;;;;;;10.50;7.95;;;0.80;1.00;;;;;;5025793;28;20266;-77
2024/01/29 04:33:45;;;;;;;11.15;7.68;;;0.80;1.00;;;;;;5031666;28;20269;-78
2024/01/29 04:36:16;;;;;;;11.48;7.70;;;0.70;1.00;;;;;;5028412;28;20245;-78
2024/01/29 04:38:44;;;;;;;12.20;7.95;;;0.80;1.00;;;;;;5029631;28;20249;-78
2024/01/29 04:41:18;;;;;;;12.45;7.68;;;0.80;1.00;;;;;;5025000;28;20242;-77
2024/01/29 04:43:46;;;;;;;11.85;8.52;;;0.70;1.00;;;;;;5023801;28;20242;-77
2024/01/29 04:46:15;;;;;;;9.88;7.75;;;0.70;1.00;;;;;;5022747;28;20261;-78
2024/01/29 04:48:43;;;;;;;10.90;7.53;;;0.70;1.00;;;;;;5028407;28;20702;-78
2024/01/29 04:51:11;;;;;;;17.15;15.45;;;0.70;1.00;;;;;;5028949;28;20272;-79
2024/01/29 04:53:38;;;;;;;10.40;8.02;;;0.70;1.00;;;;;;5025652;28;20261;-76
2024/01/29 04:56:06;;;;;;;10.10;7.22;;;0.70;1.00;;;;;;5005029;28;20297;-76
2024/01/29 04:58:34;;;;;;;17.13;7.68;;;0.70;1.00;;;;;;5023623;28;20236;-77
2024/01/29 05:01:04;;;;;;;11.60;8.52;;;0.70;1.00;;;;;;5024855;28;20261;-77
2024/01/29 05:03:34;;;;;;;11.88;7.60;;;0.70;1.00;;;;;;5008232;28;20242;-76
2024/01/29 05:06:01;;;;;;;12.32;7.25;;;0.70;1.00;;;;;;5026686;28;20273;-79
2024/01/29 05:08:28;;;;;;;12.00;8.05;;;0.80;1.00;;;;;;5019676;28;20249;-75
2024/01/29 05:10:56;;;;;;;11.98;7.68;;;0.80;1.00;;;;;;5011870;28;20252;-75
2024/01/29 05:13:22;;;;;;;10.00;7.43;;;0.80;1.00;;;;;;5033059;28;20671;-75
2024/01/29 05:15:51;;;;;;;9.38;7.60;;;0.80;1.00;;;;;;5048013;28;20754;-74
2024/01/29 05:18:18;;;;;;;11.82;7.80;;;0.80;1.00;;;;;;5029196;28;21009;-74
2024/01/29 05:20:46;;;;;;;14.90;8.55;;;0.80;1.00;;;;;;5041221;28;20237;-77
2024/01/29 05:23:13;;;;;;;11.93;7.30;;;0.80;1.00;;;;;;5043354;28;20246;-76
2024/01/29 05:25:41;;;;;;;9.30;7.43;;;0.80;1.00;;;;;;5040840;28;20248;-76
2024/01/29 05:28:08;;;;;;;11.00;7.55;;;0.80;1.00;;;;;;5038093;28;20252;-77
2024/01/29 05:30:37;;;;;;;10.38;7.93;;;0.80;1.00;;;;;;5036597;28;20321;-75
2024/01/29 05:33:12;;;;;;;11.18;8.20;;;0.80;1.00;;;;;;5036772;28;20721;-76
2024/01/29 05:35:39;;;;;;;9.80;8.00;;;0.80;1.00;;;;;;5051323;28;20340;-76
2024/01/29 05:38:08;;;;;;;10.95;8.35;;;0.80;1.00;;;;;;5041947;28;20245;-78
2024/01/29 05:40:35;;;;;;;13.05;8.15;;;0.80;1.00;;;;;;5042838;28;20253;-76
2024/01/29 05:43:02;;;;;;;11.10;8.48;;;0.70;1.00;;;;;;5053458;28;20400;-75
2024/01/29 05:45:30;;;;;;;12.57;8.02;;;0.80;1.00;;;;;;5043743;28;20245;-77
2024/01/29 05:47:56;;;;;;;10.60;7.28;;;0.80;1.00;;;;;;5050559;28;20317;-76
2024/01/29 05:50:25;;;;;;;11.07;7.72;;;0.80;1.00;;;;;;5044768;28;20726;-76
2024/01/29 05:52:52;;;;;;;10.55;7.47;;;0.80;1.00;;;;;;5037166;28;20925;-76
2024/01/29 05:55:19;;;;;;;10.35;7.90;;;0.80;1.00;;;;;;5030740;28;20956;-75
2024/01/29 05:57:46;;;;;;;13.68;8.07;;;0.80;1.00;;;;;;5046136;28;20281;-77
2024/01/29 06:00:16;;;;;;;12.00;7.97;;;0.80;1.00;;;;;;5029808;28;20329;-77
2024/01/29 06:02:45;;;;;;;10.88;8.07;;;0.70;1.00;;;;;;5041528;28;20232;-78
2024/01/29 06:05:13;;;;;;;9.98;7.78;;;0.80;1.00;;;;;;5032696;28;20246;-78
2024/01/29 06:07:42;;;;;;;9.57;7.95;;;0.80;1.00;;;;;;5030657;28;20238;-78
2024/01/29 06:10:11;;;;;;;13.18;8.15;;;0.80;1.00;;;;;;5041206;28;20629;-78
2024/01/29 06:12:38;;;;;;;11.07;8.15;;;0.80;1.00;;;;;;5031993;28;20301;-78
2024/01/29 06:15:06;;;;;;;13.27;8.18;;;0.90;1.00;;;;;;5048455;28;20720;-78
2024/01/29 06:17:35;;;;;;;9.50;7.13;;;0.90;1.00;;;;;;5036159;28;20246;-80
2024/01/29 06:20:03;;;;;;;11.60;7.65;;;1.00;1.00;;;;;;5052178;28;20319;-78
2024/01/29 06:22:30;;;;;;;12.23;8.15;;;0.90;1.00;;;;;;5035441;28;20238;-79
2024/01/29 06:25:01;;;;;;;9.55;7.00;;;1.00;1.00;;;;;;5052108;28;21252;-78
2024/01/29 06:27:29;;;;;;;14.88;12.07;;;1.00;1.00;;;;;;5034383;28;20446;-77
2024/01/29 06:29:55;;;;;;;14.60;8.48;;;1.00;1.00;;;;;;5050750;28;20292;-77
2024/01/29 06:32:23;;;;;;;16.30;8.80;;;0.90;1.00;;;;;;5042672;28;20246;-77
2024/01/29 06:34:59;;;;;;;15.98;8.85;;;1.00;1.00;;;;;;5043737;28;20300;-78
2024/01/29 06:37:27;;;;;;;11.82;7.82;;;1.10;1.00;;;;;;5043511;28;20328;-79
2024/01/29 06:39:54;;;;;;;8.93;7.32;;;1.10;1.00;;;;;;5040028;28;20233;-78
2024/01/29 06:42:22;;;;;;;10.65;6.82;;;1.10;1.00;;;;;;5052832;28;20721;-78
2024/01/29 06:44:52;;;;;;;8.90;6.60;;;1.10;1.00;;;;;;5045711;28;20733;-80
2024/01/29 06:47:22;;;;;;;10.73;7.80;;;1.00;1.00;;;;;;5044612;28;21024;-81
2024/01/29 06:49:49;;;;;;;17.42;8.07;;;1.00;1.00;;;;;;5056188;28;20241;-79
2024/01/29 06:52:16;;;;;;;9.60;7.47;;;1.00;1.00;;;;;;5055657;28;20276;-79
2024/01/29 06:54:43;;;;;;;9.60;7.60;;;1.00;1.00;;;;;;5054005;28;20260;-80
2024/01/29 06:57:11;;;;;;;11.40;8.60;;;1.00;1.00;;;;;;5052574;28;21206;-82
2024/01/29 06:59:39;;;;;;;12.32;7.63;;;0.90;1.00;;;;;;5054539;28;20246;-83
2024/01/29 07:02:08;;;;;;;9.00;7.63;;;0.90;1.00;;;;;;5049808;28;21191;-81
2024/01/29 07:04:36;;;;;;;7.72;6.30;;;0.90;1.00;;;;;;5047498;28;20243;-82
2024/01/29 07:07:04;;;;;;;11.35;6.93;;;1.00;1.00;;;;;;5043721;28;20232;-81
2024/01/29 07:09:34;;;;;;;10.10;6.60;;;1.00;1.00;;;;;;5056860;28;20277;-80
2024/01/29 07:12:04;;;;;;;13.13;7.93;;;0.90;1.00;;;;;;5059111;28;20735;-79
2024/01/29 07:14:32;;;;;;;13.85;7.25;;;1.00;1.00;;;;;;5054057;28;20245;-76
2024/01/29 07:17:02;;;;;;;7.38;6.25;;;1.00;1.00;;;;;;5053446;28;20303;-78
2024/01/29 07:19:33;;;;;;;12.90;8.32;;;1.00;1.00;;;;;;5046115;28;20265;-76
2024/01/29 07:22:04;;;;;;;9.77;7.00;;;1.10;1.00;;;;;;5035879;28;20359;-77
2024/01/29 07:24:35;;;;;;;13.70;8.15;;;1.10;1.00;;;;;;5051438;28;20687;-79
2024/01/29 07:27:02;;;;;;;8.80;7.32;;;1.10;1.00;;;;;;5040664;28;20768;-81
2024/01/29 07:29:31;;;;;;;11.30;7.53;;;1.20;1.00;;;;;;5053536;28;20241;-76
2024/01/29 07:32:00;;;;;;;8.13;6.90;;;1.10;1.00;;;;;;5042003;28;20329;-76
2024/01/29 07:34:27;;;;;;;10.93;7.75;;;1.20;1.00;;;;;;5036707;28;20238;-75
2024/01/29 07:36:54;;;;;;;14.45;7.80;;;1.30;1.00;;;;;;5039185;28;20238;-75
2024/01/29 07:39:21;;;;;;;12.00;7.53;;;1.20;1.00;;;;;;5050832;28;20236;-77
2024/01/29 07:41:48;;;;;;;15.65;8.15;;;1.30;1.00;;;;;;5050319;28;20237;-75
2024/01/29 07:44:16;;;;;;;8.82;7.13;;;1.30;1.00;;;;;;5049346;28;20792;-76
2024/01/29 07:46:43;;;;;;;10.40;7.13;;;1.40;1.00;;;;;;5048884;28;20242;-76
2024/01/29 07:49:12;;;;;;;13.90;8.40;;;1.40;1.00;;;;;;5038950;28;20238;-76
2024/01/29 07:51:41;;;;;;;15.50;8.20;;;1.50;1.00;;;;;;5043135;28;20249;-76
2024/01/29 07:54:09;;;;;;;12.52;7.35;;;1.60;1.00;;;;;;5042491;28;20714;-76
2024/01/29 07:56:38;;;;;;;9.45;7.15;;;1.70;1.00;;;;;;5030339;28;20624;-77
2024/01/29 07:59:05;;;;;;;11.43;7.57;;;1.80;1.00;;;;;;5028919;28;20248;-77
2024/01/29 08:01:33;;;;;;;10.95;7.43;;;1.90;1.00;;;;;;5042374;28;20237;-75
2024/01/29 08:04:01;;;;;;;13.45;8.27;;;2.00;1.00;;;;;;5050344;28;20326;-76
2024/01/29 08:06:30;;;;;;;11.85;7.72;;;2.10;1.00;;;;;;5038825;28;20291;-77
2024/01/29 08:08:57;;;;;;;10.50;8.10;;;2.20;1.00;;;;;;5043418;28;20238;-77
2024/01/29 08:11:24;;;;;;;11.45;8.18;;;2.30;1.00;;;;;;5028172;28;21023;-76
2024/01/29 08:13:51;;;;;;;10.05;7.05;;;2.50;1.00;;;;;;5037602;28;20328;-77
2024/01/29 08:16:18;;;;;;;10.85;7.80;;;2.60;1.00;;;;;;5032122;28;20372;-80
2024/01/29 08:18:45;;;;;;;11.00;7.95;;;2.60;1.00;;;;;;5049334;28;20249;-74
2024/01/29 08:21:12;;;;;;;9.00;7.40;;;2.70;1.00;;;;;;5038199;28;20241;-76
2024/01/29 08:23:41;;;;;;;19.17;8.00;;;2.90;1.00;;;;;;5029182;28;20237;-73
2024/01/29 08:26:08;;;;;;;9.73;6.78;;;3.10;1.00;;;;;;5048635;28;20245;-76
2024/01/29 08:28:36;;;;;;;10.32;7.63;;;3.30;1.00;;;;;;5042567;28;20336;-76
2024/01/29 08:31:03;;;;;;;10.73;8.05;;;3.60;1.00;;;;;;5045960;28;20328;-77
2024/01/29 08:33:30;;;;;;;16.50;7.13;;;3.80;1.00;;;;;;5032214;28;20266;-77
2024/01/29 08:35:57;;;;;;;11.25;6.80;;;4.30;1.00;;;;;;5042864;28;20219;-78
2024/01/29 08:38:24;;;;;;;10.60;6.32;;;4.80;1.00;;;;;;5041408;28;20277;-78
2024/01/29 08:40:54;;;;;;;9.98;6.97;;;5.20;1.00;;;;;;5033809;28;20242;-78
2024/01/29 08:43:21;;;;;;;8.23;7.28;;;5.50;1.00;;;;;;5043696;28;20244;-78
2024/01/29 08:45:49;;;;;;;8.43;7.32;;;5.80;1.00;;;;;;5046808;28;20748;-76
2024/01/29 08:48:16;;;;;;;8.93;6.70;;;6.20;1.00;;;;;;5041027;28;20737;-76
2024/01/29 08:50:43;;;;;;;7.88;6.95;;;6.50;1.00;;;;;;5040704;28;20243;-76
2024/01/29 08:53:10;;;;;;;10.30;7.53;;;6.70;1.00;;;;;;5040752;28;20274;-79
2024/01/29 08:55:37;;;;;;;10.00;7.20;;;6.70;1.00;;;;;;5040416;28;20275;-74
2024/01/29 08:58:06;;;;;;;8.03;6.30;;;6.80;1.00;;;;;;5031749;28;20350;-78
2024/01/29 09:00:33;;;;;;;8.65;6.30;;;6.70;1.00;;;;;;5030802;28;20502;-78
2024/01/29 09:03:00;;;;;;;9.90;7.22;;;6.60;1.00;;;;;;5039605;28;20243;-76
2024/01/29 09:05:27;;;;;;;8.10;6.70;;;6.50;1.00;;;;;;5039747;28;21116;-77
2024/01/29 09:07:54;;;;;;;6.50;5.90;;;6.30;1.00;;;;;;5040567;28;20458;-76
2024/01/29 09:10:23;;;;;;;7.88;6.90;;;6.20;1.00;;;;;;5039984;28;20247;-76
2024/01/29 09:12:50;;;;;;;8.40;6.10;;;6.40;1.00;;;;;;5050349;28;20249;-76
2024/01/29 09:15:20;;;;;;;8.90;6.90;;;6.60;1.00;;;;;;5049294;28;20472;-75
2024/01/29 09:17:47;;;;;;;7.30;5.47;;;6.90;1.00;;;;;;5044813;28;20498;-77
2024/01/29 09:20:15;;;;;;;8.27;6.10;;;6.90;1.00;;;;;;5033665;28;20486;-77
2024/01/29 09:22:45;;;;;;;7.93;5.97;;;6.80;1.00;;;;;;5038876;28;20242;-76
2024/01/29 09:25:13;;;;;;;16.15;5.97;;;6.50;1.00;;;;;;5048994;28;20748;-76
2024/01/29 09:27:40;;;;;;;7.10;6.43;;;6.50;1.00;;;;;;5044565;28;20238;-76
2024/01/29 09:30:10;;;;;;;8.40;5.20;;;6.50;1.00;;;;;;5036903;28;20337;-77
2024/01/29 09:32:38;;;;;;;9.63;5.60;;;6.70;1.00;;;;;;5028873;28;20236;-77
2024/01/29 09:35:08;;;;;;;7.53;5.83;;;7.00;1.00;;;;;;5030906;28;20998;-76
2024/01/29 09:37:35;;;;;;;7.20;5.53;;;7.10;1.00;;;;;;5054846;28;20885;-78
2024/01/29 09:40:02;;;;;;;7.03;5.70;;;7.30;1.00;;;;;;5051301;28;21320;-77
2024/01/29 09:42:32;;;;;;;9.05;5.65;;;7.60;1.00;;;;;;5042473;28;20464;-76
2024/01/29 09:45:01;;;;;;;7.47;5.83;;;7.80;1.00;;;;;;5036223;28;20251;-76
2024/01/29 09:47:29;;;;;;;10.47;6.27;;;8.10;1.00;;;;;;5039387;28;20473;-77
2024/01/29 09:50:02;;;;;;;8.90;6.90;;;8.70;1.00;;;;;;5033000;28;20469;-75
2024/01/29 09:52:29;;;;;;;8.40;6.17;;;9.50;1.00;;;;;;5039371;28;20482;-77
2024/01/29 09:54:58;;;;;;;6.93;5.43;;;10.00;1.00;;;;;;5043855;28;20546;-76
2024/01/29 09:57:25;;;;;;;6.20;5.27;;;10.50;1.00;;;;;;5043574;28;20516;-76
2024/01/29 09:59:52;;;;;;;6.40;4.90;;;10.80;1.00;;;;;;5031887;28;20961;-75
2024/01/29 10:02:19;;;;;;;6.87;5.20;;;10.40;1.00;;;;;;5039155;28;20953;-77
2024/01/29 10:04:47;;;;;;;6.00;5.03;;;10.10;1.00;;;;;;5041196;28;20453;-75
2024/01/29 10:07:16;;;;;;;5.80;5.20;;;9.90;1.00;;;;;;5050631;28;20530;-76
2024/01/29 10:09:44;;;;;;;8.27;5.07;;;9.60;1.00;;;;;;5048096;28;20452;-78
2024/01/29 10:12:22;;;;;;;9.30;5.50;;;10.00;1.00;;;;;;5049597;28;20462;-75
2024/01/29 10:14:49;;;;;;;9.77;5.37;;;10.50;1.00;;;;;;5044269;28;20944;-75
2024/01/29 10:17:16;;;;;;;6.90;5.17;;;10.50;1.00;;;;;;5040093;28;20555;-76
2024/01/29 10:19:43;;;;;;;8.40;6.07;;;10.40;1.00;;;;;;5048214;28;20458;-78
2024/01/29 10:22:14;;;;;;;7.53;4.53;;;10.70;1.00;;;;;;5039314;28;20461;-79
2024/01/29 10:24:43;;;;;;;6.10;5.00;;;10.70;1.00;;;;;;5038300;28;20520;-77
2024/01/29 10:27:10;;;;;;;18.90;7.13;;;10.40;1.00;;;;;;5046133;28;20464;-76
2024/01/29 10:29:48;;;;;;;7.43;5.50;;;10.20;1.00;;;;;;5049549;28;20458;-76
2024/01/29 10:32:16;;;;;;;6.63;5.20;;;10.10;1.00;;;;;;5039460;28;20825;-76
2024/01/29 10:34:43;;;;;;;6.83;5.30;;;10.30;1.00;;;;;;5045810;28;20793;-76
2024/01/29 10:37:12;;;;;;;9.50;5.70;;;11.00;1.00;;;;;;5033509;28;20625;-77
2024/01/29 10:39:42;;;;;;;11.47;6.20;;;11.40;1.00;;;;;;5028298;28;20446;-77
2024/01/29 10:42:09;;;;;;;8.20;5.97;;;11.50;1.00;;;;;;5031578;28;20509;-76
2024/01/29 10:44:40;;;;;;;9.80;5.67;;;12.00;1.00;;;;;;5029998;28;20526;-75
2024/01/29 10:47:18;;;;;;;8.70;5.40;;;12.70;1.00;;;;;;5036694;28;20465;-75
2024/01/29 10:49:50;;;;;;;8.37;6.00;;;13.00;1.00;;;;;;5050202;28;20458;-76
2024/01/29 10:52:17;;;;;;;8.20;5.67;;;13.60;1.00;;;;;;5032665;28;20556;-74
2024/01/29 10:54:46;;;;;;;7.30;5.00;;;13.80;1.00;;;;;;5047103;28;20489;-74
2024/01/29 10:57:16;;;;;;;5.77;5.17;;;13.50;1.00;;;;;;5040379;28;21009;-75
2024/01/29 10:59:44;;;;;;;9.60;5.87;;;13.20;1.00;;;;;;5050760;28;20458;-75
2024/01/29 11:02:14;;;;;;;9.23;4.90;;;12.70;1.00;;;;;;5034246;28;20497;-75
2024/01/29 11:04:41;;;;;;;6.30;4.67;;;12.50;1.00;;;;;;5041525;28;20473;-75
2024/01/29 11:07:15;;;;;;;5.13;4.63;;;11.90;1.00;;;;;;5052175;28;20925;-75
2024/01/29 11:09:51;;;;;;;5.90;5.30;;;11.60;1.00;;;;;;5026593;28;20529;-74
2024/01/29 11:12:19;;;;;;;5.67;4.87;;;11.40;1.00;;;;;;5026780;28;20972;-74
2024/01/29 11:14:58;;;;;;;7.70;4.87;;;11.50;1.00;;;;;;5033336;28;20964;-74
2024/01/29 11:17:26;;;;;;;15.27;9.37;;;11.90;1.00;;;;;;5044708;28;20587;-72
2024/01/29 11:19:53;;;;;;;5.23;4.60;;;12.80;1.00;;;;;;5048485;28;20482;-74
2024/01/29 11:22:20;;;;;;;4.87;4.43;;;13.50;1.00;;;;;;5030073;28;21056;-74
2024/01/29 11:24:48;;;;;;;5.93;4.40;;;14.30;1.00;;;;;;5029469;28;20481;-71
2024/01/29 11:27:15;;;;;;;5.30;4.20;;;14.80;1.00;;;;;;5029810;28;20515;-72
2024/01/29 11:29:45;;;;;;;7.50;4.67;;;15.00;1.00;;;;;;5030061;28;20961;-73
2024/01/29 11:32:16;;;;;;;6.53;4.40;;;14.60;1.00;;;;;;5047407;28;20677;-73
2024/01/29 11:34:43;;;;;;;5.23;3.77;;;14.10;1.00;;;;;;5028380;28;20502;-72
2024/01/29 11:37:09;;;;;;;9.13;4.77;;;14.00;1.00;;;;;;5044867;28;20472;-73
2024/01/29 11:39:56;;;;;;;9.07;4.63;;;13.90;1.00;;;;;;5051180;28;20597;-75
2024/01/29 11:42:23;;;;;;;16.47;5.30;;;13.80;1.00;;;;;;5040862;28;20449;-73
2024/01/29 11:44:51;;;;;;;9.30;4.10;;;14.60;1.00;;;;;;5035711;28;20524;-74
2024/01/29 11:47:21;;;;;;;4.30;3.90;;;15.10;1.00;;;;;;5025707;28;20562;-74
2024/01/29 11:49:48;;;;;;;4.30;3.90;;;14.90;1.00;;;;;;5036519;28;20500;-72
2024/01/29 11:52:16;;;;;;;5.90;3.70;;;14.60;1.00;;;;;;5029712;28;20566;-73
2024/01/29 11:54:43;;;;;;;4.20;3.70;;;14.50;1.00;;;;;;5027642;28;20543;-72
2024/01/29 11:57:12;;;;;;;6.10;3.73;;;14.40;1.00;;;;;;5025070;28;21006;-71
2024/01/29 11:59:45;;;;;;;5.10;3.53;;;14.60;1.00;;;;;;5029643;28;20524;-72
2024/01/29 12:02:13;;;;;;;11.70;5.33;;;14.90;1.00;;;;;;5041131;28;20479;-74
2024/01/29 12:04:40;;;;;;;4.57;3.60;;;15.30;1.00;;;;;;5039035;28;20939;-73
2024/01/29 12:07:07;;;;;;;3.67;2.87;;;15.20;1.00;;;;;;5031915;28;20529;-75
2024/01/29 12:09:35;;;;;;;3.50;3.20;;;14.80;1.00;;;;;;5039659;28;26133;-73
2024/01/29 12:12:02;;;;;;;4.40;3.33;;;14.60;1.00;;;;;;5032782;28;20479;-74
2024/01/29 12:14:31;;;;;;;4.17;3.80;;;14.50;1.00;;;;;;5043768;28;20467;-77
2024/01/29 12:16:58;;;;;;;3.60;3.10;;;14.40;1.00;;;;;;5047641;28;20464;-73
2024/01/29 12:19:25;;;;;;;5.47;3.77;;;14.60;1.00;;;;;;5038993;28;20476;-75
2024/01/29 12:21:52;;;;;;;4.27;3.50;;;14.60;1.00;;;;;;5032434;28;20460;-75
2024/01/29 12:24:20;;;;;;;3.73;3.17;;;14.70;1.00;;;;;;5040739;28;21050;-74
2024/01/29 12:26:47;;;;;;;5.10;3.17;;;14.70;1.00;;;;;;5051793;28;20566;-72
2024/01/29 12:29:15;;;;;;;3.60;2.97;;;14.90;1.00;;;;;;5047943;28;20643;-75
2024/01/29 12:31:45;;;;;;;4.50;3.03;;;14.60;1.00;;;;;;5038989;28;20476;-73
2024/01/29 12:34:19;;;;;;;5.50;2.83;;;14.30;1.00;;;;;;5033376;28;20997;-73
2024/01/29 12:36:51;;;;;;;3.40;2.90;;;14.20;1.00;;;;;;5042962;28;20466;-74
2024/01/29 12:39:18;;;;;;;5.60;3.10;;;14.00;1.00;;;;;;5050820;28;20541;-73
2024/01/29 12:41:45;;;;;;;3.60;3.10;;;13.70;1.00;;;;;;5041832;28;21072;-73
2024/01/29 12:44:13;;;;;;;3.90;3.10;;;13.60;1.00;;;;;;5032881;28;20511;-74
2024/01/29 12:46:40;;;;;;;5.00;3.37;;;13.50;1.00;;;;;;5027184;28;20958;-73
2024/01/29 12:49:09;;;;;;;6.67;3.10;;;13.70;1.00;;;;;;5038006;28;20558;-75
2024/01/29 12:51:36;;;;;;;4.73;2.90;;;14.10;1.00;;;;;;5041381;28;20447;-73
2024/01/29 12:54:06;;;;;;;3.30;2.70;;;14.50;1.00;;;;;;5033607;28;20496;-77
2024/01/29 12:56:33;;;;;;;13.90;4.30;;;14.70;1.00;;;;;;5042593;28;20495;-74
2024/01/29 12:59:03;;;;;;;7.10;3.97;;;14.80;1.00;;;;;;5045307;28;20504;-72
2024/01/29 13:01:30;;;;;;;26.73;7.50;;;14.70;1.00;;;;;;5029809;28;20484;-71
2024/01/29 13:03:57;;;;;;;6.30;4.00;;;14.50;1.00;;;;;;5031109;28;20464;-74